sensor_id;sensor_type;location;lat;lon;timestamp;P1;durP1;ratioP1;P2;durP2;ratioP2
54125;SDS011;40360;52.992;6.796;2022-10-31T00:00:22;28.08;;;18.05;;
54125;SDS011;40360;52.992;6.796;2022-10-31T00:02:47;39.92;;;19.23;;
54125;SDS011;40360;52.992;6.796;2022-10-31T00:05:13;37.20;;;17.67;;
54125;SDS011;40360;52.992;6.796;2022-10-31T00:07:39;32.38;;;17.77;;
54125;SDS011;40360;52.992;6.796;2022-10-31T00:10:05;29.23;;;16.63;;
54125;SDS011;40360;52.992;6.796;2022-10-31T00:12:31;31.08;;;17.50;;
54125;SDS011;40360;52.992;6.796;2022-10-31T00:14:56;27.38;;;16.63;;
54125;SDS011;40360;52.992;6.796;2022-10-31T00:17:22;29.52;;;16.63;;
54125;SDS011;40360;52.992;6.796;2022-10-31T00:19:47;27.10;;;17.17;;
54125;SDS011;40360;52.992;6.796;2022-10-31T00:22:13;29.45;;;17.05;;
54125;SDS011;40360;52.992;6.796;2022-10-31T00:24:39;28.85;;;17.23;;
54125;SDS011;40360;52.992;6.796;2022-10-31T00:27:04;25.60;;;15.73;;
54125;SDS011;40360;52.992;6.796;2022-10-31T00:29:30;25.85;;;15.20;;
54125;SDS011;40360;52.992;6.796;2022-10-31T00:31:55;28.63;;;15.98;;
54125;SDS011;40360;52.992;6.796;2022-10-31T00:34:21;24.33;;;15.52;;
54125;SDS011;40360;52.992;6.796;2022-10-31T00:36:47;27.60;;;17.10;;
54125;SDS011;40360;52.992;6.796;2022-10-31T00:39:13;25.33;;;16.35;;
54125;SDS011;40360;52.992;6.796;2022-10-31T00:41:39;28.23;;;16.48;;
54125;SDS011;40360;52.992;6.796;2022-10-31T00:44:04;25.02;;;15.48;;
54125;SDS011;40360;52.992;6.796;2022-10-31T00:46:30;22.75;;;14.65;;
54125;SDS011;40360;52.992;6.796;2022-10-31T00:48:55;25.58;;;16.08;;
54125;SDS011;40360;52.992;6.796;2022-10-31T00:51:21;23.10;;;14.32;;
54125;SDS011;40360;52.992;6.796;2022-10-31T00:53:46;24.00;;;14.82;;
54125;SDS011;40360;52.992;6.796;2022-10-31T00:56:12;26.15;;;14.27;;
54125;SDS011;40360;52.992;6.796;2022-10-31T00:58:38;23.98;;;14.07;;
54125;SDS011;40360;52.992;6.796;2022-10-31T01:01:04;22.77;;;13.05;;
54125;SDS011;40360;52.992;6.796;2022-10-31T01:03:31;23.60;;;13.93;;
54125;SDS011;40360;52.992;6.796;2022-10-31T01:06:01;25.33;;;14.10;;
54125;SDS011;40360;52.992;6.796;2022-10-31T01:08:29;22.77;;;14.90;;
54125;SDS011;40360;52.992;6.796;2022-10-31T01:11:02;23.60;;;13.75;;
54125;SDS011;40360;52.992;6.796;2022-10-31T01:13:28;21.50;;;15.25;;
54125;SDS011;40360;52.992;6.796;2022-10-31T01:15:55;24.38;;;15.02;;
54125;SDS011;40360;52.992;6.796;2022-10-31T01:18:21;24.95;;;14.65;;
54125;SDS011;40360;52.992;6.796;2022-10-31T01:20:47;29.00;;;15.25;;
54125;SDS011;40360;52.992;6.796;2022-10-31T01:23:25;22.88;;;14.45;;
54125;SDS011;40360;52.992;6.796;2022-10-31T01:28:30;21.73;;;15.23;;
54125;SDS011;40360;52.992;6.796;2022-10-31T01:30:59;27.55;;;16.00;;
54125;SDS011;40360;52.992;6.796;2022-10-31T01:33:25;28.45;;;15.90;;
54125;SDS011;40360;52.992;6.796;2022-10-31T01:35:51;27.92;;;15.40;;
54125;SDS011;40360;52.992;6.796;2022-10-31T01:38:17;26.98;;;16.05;;
54125;SDS011;40360;52.992;6.796;2022-10-31T01:40:43;25.98;;;16.05;;
54125;SDS011;40360;52.992;6.796;2022-10-31T01:43:14;28.08;;;15.68;;
54125;SDS011;40360;52.992;6.796;2022-10-31T01:45:41;29.52;;;16.55;;
54125;SDS011;40360;52.992;6.796;2022-10-31T01:48:15;26.20;;;15.77;;
54125;SDS011;40360;52.992;6.796;2022-10-31T01:50:43;26.33;;;16.33;;
54125;SDS011;40360;52.992;6.796;2022-10-31T01:53:12;25.73;;;16.00;;
54125;SDS011;40360;52.992;6.796;2022-10-31T01:55:40;24.60;;;16.38;;
54125;SDS011;40360;52.992;6.796;2022-10-31T01:58:09;27.45;;;16.63;;
54125;SDS011;40360;52.992;6.796;2022-10-31T02:00:42;25.65;;;15.63;;
54125;SDS011;40360;52.992;6.796;2022-10-31T02:03:10;26.52;;;15.77;;
54125;SDS011;40360;52.992;6.796;2022-10-31T02:05:36;23.73;;;16.05;;
54125;SDS011;40360;52.992;6.796;2022-10-31T02:10:59;22.80;;;14.68;;
54125;SDS011;40360;52.992;6.796;2022-10-31T02:13:26;22.90;;;15.27;;
54125;SDS011;40360;52.992;6.796;2022-10-31T02:15:57;23.77;;;17.10;;
54125;SDS011;40360;52.992;6.796;2022-10-31T02:18:24;25.08;;;16.70;;
54125;SDS011;40360;52.992;6.796;2022-10-31T02:21:12;25.52;;;16.33;;
54125;SDS011;40360;52.992;6.796;2022-10-31T02:23:56;25.40;;;15.60;;
54125;SDS011;40360;52.992;6.796;2022-10-31T02:29:23;26.02;;;15.43;;
54125;SDS011;40360;52.992;6.796;2022-10-31T02:32:17;24.17;;;16.48;;
54125;SDS011;40360;52.992;6.796;2022-10-31T02:35:49;29.63;;;17.60;;
54125;SDS011;40360;52.992;6.796;2022-10-31T02:40:31;26.15;;;16.50;;
54125;SDS011;40360;52.992;6.796;2022-10-31T02:43:17;30.70;;;18.45;;
54125;SDS011;40360;52.992;6.796;2022-10-31T02:46:04;25.10;;;17.85;;
54125;SDS011;40360;52.992;6.796;2022-10-31T02:48:38;20.42;;;15.35;;
54125;SDS011;40360;52.992;6.796;2022-10-31T02:51:05;25.42;;;15.32;;
54125;SDS011;40360;52.992;6.796;2022-10-31T02:53:33;28.33;;;17.90;;
54125;SDS011;40360;52.992;6.796;2022-10-31T02:58:30;22.25;;;15.70;;
54125;SDS011;40360;52.992;6.796;2022-10-31T03:01:06;28.67;;;15.40;;
54125;SDS011;40360;52.992;6.796;2022-10-31T03:03:36;21.77;;;15.35;;
54125;SDS011;40360;52.992;6.796;2022-10-31T03:06:20;24.02;;;15.25;;
54125;SDS011;40360;52.992;6.796;2022-10-31T03:08:50;21.58;;;14.48;;
54125;SDS011;40360;52.992;6.796;2022-10-31T03:11:28;18.50;;;14.70;;
54125;SDS011;40360;52.992;6.796;2022-10-31T03:14:00;22.95;;;16.13;;
54125;SDS011;40360;52.992;6.796;2022-10-31T03:19:08;24.95;;;15.27;;
54125;SDS011;40360;52.992;6.796;2022-10-31T03:24:08;21.63;;;13.80;;
54125;SDS011;40360;52.992;6.796;2022-10-31T03:26:36;21.30;;;14.48;;
54125;SDS011;40360;52.992;6.796;2022-10-31T03:29:06;21.73;;;15.45;;
54125;SDS011;40360;52.992;6.796;2022-10-31T03:32:00;19.58;;;12.85;;
54125;SDS011;40360;52.992;6.796;2022-10-31T03:34:28;14.18;;;11.27;;
54125;SDS011;40360;52.992;6.796;2022-10-31T03:36:57;19.40;;;13.40;;
54125;SDS011;40360;52.992;6.796;2022-10-31T03:39:26;20.75;;;14.93;;
54125;SDS011;40360;52.992;6.796;2022-10-31T03:41:57;16.27;;;12.80;;
54125;SDS011;40360;52.992;6.796;2022-10-31T03:44:27;23.45;;;13.23;;
54125;SDS011;40360;52.992;6.796;2022-10-31T03:46:55;21.77;;;14.07;;
54125;SDS011;40360;52.992;6.796;2022-10-31T03:49:21;19.77;;;13.93;;
54125;SDS011;40360;52.992;6.796;2022-10-31T03:52:33;16.58;;;12.52;;
54125;SDS011;40360;52.992;6.796;2022-10-31T03:54:53;17.85;;;12.93;;
54125;SDS011;40360;52.992;6.796;2022-10-31T04:02:38;21.05;;;13.68;;
54125;SDS011;40360;52.992;6.796;2022-10-31T04:05:10;23.23;;;13.93;;
54125;SDS011;40360;52.992;6.796;2022-10-31T04:07:39;22.10;;;14.63;;
54125;SDS011;40360;52.992;6.796;2022-10-31T04:10:10;21.45;;;13.43;;
54125;SDS011;40360;52.992;6.796;2022-10-31T04:12:38;24.98;;;15.27;;
54125;SDS011;40360;52.992;6.796;2022-10-31T04:15:06;24.38;;;16.73;;
54125;SDS011;40360;52.992;6.796;2022-10-31T04:17:35;19.55;;;13.15;;
54125;SDS011;40360;52.992;6.796;2022-10-31T04:20:05;19.85;;;12.88;;
54125;SDS011;40360;52.992;6.796;2022-10-31T04:22:31;26.92;;;18.05;;
54125;SDS011;40360;52.992;6.796;2022-10-31T04:24:57;16.50;;;13.52;;
54125;SDS011;40360;52.992;6.796;2022-10-31T04:27:22;21.60;;;14.15;;
54125;SDS011;40360;52.992;6.796;2022-10-31T04:29:48;22.52;;;14.93;;
54125;SDS011;40360;52.992;6.796;2022-10-31T04:32:14;22.75;;;14.23;;
54125;SDS011;40360;52.992;6.796;2022-10-31T04:34:39;21.38;;;15.27;;
54125;SDS011;40360;52.992;6.796;2022-10-31T04:37:05;23.35;;;16.25;;
54125;SDS011;40360;52.992;6.796;2022-10-31T04:39:30;23.63;;;16.35;;
54125;SDS011;40360;52.992;6.796;2022-10-31T04:41:56;22.70;;;16.67;;
54125;SDS011;40360;52.992;6.796;2022-10-31T04:44:21;22.88;;;15.23;;
54125;SDS011;40360;52.992;6.796;2022-10-31T04:46:47;26.17;;;17.02;;
54125;SDS011;40360;52.992;6.796;2022-10-31T04:49:12;26.35;;;17.80;;
54125;SDS011;40360;52.992;6.796;2022-10-31T04:51:38;27.30;;;19.10;;
54125;SDS011;40360;52.992;6.796;2022-10-31T04:54:04;28.35;;;20.00;;
54125;SDS011;40360;52.992;6.796;2022-10-31T04:56:29;23.60;;;16.40;;
54125;SDS011;40360;52.992;6.796;2022-10-31T04:58:55;21.27;;;15.07;;
54125;SDS011;40360;52.992;6.796;2022-10-31T05:01:21;20.98;;;15.50;;
54125;SDS011;40360;52.992;6.796;2022-10-31T05:20:29;25.40;;;17.15;;
54125;SDS011;40360;52.992;6.796;2022-10-31T05:22:56;14.52;;;12.82;;
54125;SDS011;40360;52.992;6.796;2022-10-31T05:25:23;21.20;;;15.52;;
54125;SDS011;40360;52.992;6.796;2022-10-31T05:27:51;32.63;;;18.25;;
54125;SDS011;40360;52.992;6.796;2022-10-31T05:30:19;27.58;;;17.63;;
54125;SDS011;40360;52.992;6.796;2022-10-31T05:32:47;26.80;;;18.13;;
54125;SDS011;40360;52.992;6.796;2022-10-31T05:35:18;24.73;;;17.83;;
54125;SDS011;40360;52.992;6.796;2022-10-31T05:37:45;26.95;;;18.83;;
54125;SDS011;40360;52.992;6.796;2022-10-31T05:40:11;15.43;;;13.00;;
54125;SDS011;40360;52.992;6.796;2022-10-31T05:42:38;19.45;;;13.23;;
54125;SDS011;40360;52.992;6.796;2022-10-31T05:45:05;20.02;;;14.05;;
54125;SDS011;40360;52.992;6.796;2022-10-31T05:47:32;26.55;;;22.23;;
54125;SDS011;40360;52.992;6.796;2022-10-31T05:49:58;28.98;;;24.27;;
54125;SDS011;40360;52.992;6.796;2022-10-31T05:52:23;25.17;;;18.65;;
54125;SDS011;40360;52.992;6.796;2022-10-31T05:54:49;31.02;;;19.95;;
54125;SDS011;40360;52.992;6.796;2022-10-31T05:57:14;47.42;;;31.15;;
54125;SDS011;40360;52.992;6.796;2022-10-31T05:59:40;31.88;;;22.35;;
54125;SDS011;40360;52.992;6.796;2022-10-31T06:02:06;29.15;;;20.55;;
54125;SDS011;40360;52.992;6.796;2022-10-31T06:04:31;32.83;;;23.20;;
54125;SDS011;40360;52.992;6.796;2022-10-31T06:06:57;14.05;;;12.07;;
54125;SDS011;40360;52.992;6.796;2022-10-31T06:09:23;15.07;;;10.43;;
54125;SDS011;40360;52.992;6.796;2022-10-31T06:11:48;14.90;;;11.18;;
54125;SDS011;40360;52.992;6.796;2022-10-31T06:14:14;214.75;;;25.10;;
54125;SDS011;40360;52.992;6.796;2022-10-31T06:16:40;164.88;;;22.65;;
54125;SDS011;40360;52.992;6.796;2022-10-31T06:19:05;35.80;;;18.10;;
54125;SDS011;40360;52.992;6.796;2022-10-31T06:21:31;23.55;;;16.23;;
54125;SDS011;40360;52.992;6.796;2022-10-31T06:23:56;17.95;;;12.82;;
54125;SDS011;40360;52.992;6.796;2022-10-31T06:26:22;16.60;;;13.82;;
54125;SDS011;40360;52.992;6.796;2022-10-31T06:28:48;24.58;;;18.90;;
54125;SDS011;40360;52.992;6.796;2022-10-31T06:31:14;41.58;;;27.20;;
54125;SDS011;40360;52.992;6.796;2022-10-31T06:33:42;42.35;;;27.42;;
54125;SDS011;40360;52.992;6.796;2022-10-31T06:36:08;59.13;;;32.53;;
54125;SDS011;40360;52.992;6.796;2022-10-31T06:38:34;51.35;;;31.83;;
54125;SDS011;40360;52.992;6.796;2022-10-31T06:41:03;38.00;;;25.08;;
54125;SDS011;40360;52.992;6.796;2022-10-31T06:43:30;27.35;;;19.23;;
54125;SDS011;40360;52.992;6.796;2022-10-31T06:45:56;92.28;;;30.88;;
54125;SDS011;40360;52.992;6.796;2022-10-31T06:48:22;112.07;;;39.67;;
54125;SDS011;40360;52.992;6.796;2022-10-31T06:50:47;75.55;;;32.47;;
54125;SDS011;40360;52.992;6.796;2022-10-31T06:53:13;113.18;;;36.08;;
54125;SDS011;40360;52.992;6.796;2022-10-31T06:55:40;132.27;;;38.42;;
54125;SDS011;40360;52.992;6.796;2022-10-31T06:58:08;161.77;;;43.03;;
54125;SDS011;40360;52.992;6.796;2022-10-31T07:00:35;74.13;;;28.83;;
54125;SDS011;40360;52.992;6.796;2022-10-31T07:03:02;116.07;;;34.10;;
54125;SDS011;40360;52.992;6.796;2022-10-31T07:05:29;64.35;;;26.05;;
54125;SDS011;40360;52.992;6.796;2022-10-31T07:07:56;48.63;;;24.50;;
54125;SDS011;40360;52.992;6.796;2022-10-31T07:10:25;70.32;;;26.33;;
54125;SDS011;40360;52.992;6.796;2022-10-31T07:12:55;37.33;;;21.92;;
54125;SDS011;40360;52.992;6.796;2022-10-31T07:15:26;32.40;;;20.50;;
54125;SDS011;40360;52.992;6.796;2022-10-31T07:17:58;37.40;;;19.70;;
54125;SDS011;40360;52.992;6.796;2022-10-31T07:20:26;19.08;;;16.98;;
54125;SDS011;40360;52.992;6.796;2022-10-31T07:22:52;29.55;;;18.90;;
54125;SDS011;40360;52.992;6.796;2022-10-31T07:25:17;50.95;;;19.42;;
54125;SDS011;40360;52.992;6.796;2022-10-31T07:27:43;17.98;;;16.05;;
54125;SDS011;40360;52.992;6.796;2022-10-31T07:30:09;19.58;;;15.85;;
54125;SDS011;40360;52.992;6.796;2022-10-31T07:32:37;31.88;;;16.02;;
54125;SDS011;40360;52.992;6.796;2022-10-31T07:35:10;18.58;;;13.85;;
54125;SDS011;40360;52.992;6.796;2022-10-31T07:37:37;15.77;;;13.73;;
54125;SDS011;40360;52.992;6.796;2022-10-31T07:40:03;19.48;;;16.13;;
54125;SDS011;40360;52.992;6.796;2022-10-31T07:42:43;15.90;;;14.25;;
54125;SDS011;40360;52.992;6.796;2022-10-31T07:45:17;17.58;;;14.93;;
54125;SDS011;40360;52.992;6.796;2022-10-31T07:47:50;16.20;;;13.98;;
54125;SDS011;40360;52.992;6.796;2022-10-31T07:50:21;15.13;;;13.27;;
54125;SDS011;40360;52.992;6.796;2022-10-31T07:52:48;15.50;;;13.80;;
54125;SDS011;40360;52.992;6.796;2022-10-31T07:55:14;15.65;;;13.98;;
54125;SDS011;40360;52.992;6.796;2022-10-31T07:57:40;18.75;;;14.23;;
54125;SDS011;40360;52.992;6.796;2022-10-31T08:00:07;44.28;;;19.08;;
54125;SDS011;40360;52.992;6.796;2022-10-31T08:02:34;35.20;;;18.35;;
54125;SDS011;40360;52.992;6.796;2022-10-31T08:05:00;32.40;;;17.33;;
54125;SDS011;40360;52.992;6.796;2022-10-31T08:07:29;31.48;;;14.95;;
54125;SDS011;40360;52.992;6.796;2022-10-31T08:09:55;25.42;;;14.35;;
54125;SDS011;40360;52.992;6.796;2022-10-31T08:12:21;28.73;;;17.83;;
54125;SDS011;40360;52.992;6.796;2022-10-31T08:14:48;31.90;;;18.02;;
54125;SDS011;40360;52.992;6.796;2022-10-31T08:17:14;54.20;;;21.35;;
54125;SDS011;40360;52.992;6.796;2022-10-31T08:19:43;35.03;;;16.30;;
54125;SDS011;40360;52.992;6.796;2022-10-31T08:22:09;44.97;;;17.85;;
54125;SDS011;40360;52.992;6.796;2022-10-31T08:24:35;51.03;;;21.20;;
54125;SDS011;40360;52.992;6.796;2022-10-31T08:27:00;31.92;;;18.42;;
54125;SDS011;40360;52.992;6.796;2022-10-31T08:29:26;26.90;;;17.83;;
54125;SDS011;40360;52.992;6.796;2022-10-31T08:31:52;42.58;;;18.50;;
54125;SDS011;40360;52.992;6.796;2022-10-31T08:34:18;73.63;;;20.90;;
54125;SDS011;40360;52.992;6.796;2022-10-31T08:36:44;31.15;;;22.42;;
54125;SDS011;40360;52.992;6.796;2022-10-31T08:39:11;33.88;;;22.77;;
54125;SDS011;40360;52.992;6.796;2022-10-31T08:41:37;34.08;;;23.40;;
54125;SDS011;40360;52.992;6.796;2022-10-31T08:44:03;30.90;;;24.40;;
54125;SDS011;40360;52.992;6.796;2022-10-31T08:46:29;27.83;;;22.73;;
54125;SDS011;40360;52.992;6.796;2022-10-31T08:48:54;29.77;;;23.83;;
54125;SDS011;40360;52.992;6.796;2022-10-31T08:51:20;40.25;;;27.23;;
54125;SDS011;40360;52.992;6.796;2022-10-31T08:53:46;35.17;;;24.88;;
54125;SDS011;40360;52.992;6.796;2022-10-31T08:56:11;33.88;;;25.05;;
54125;SDS011;40360;52.992;6.796;2022-10-31T08:58:37;32.30;;;24.25;;
54125;SDS011;40360;52.992;6.796;2022-10-31T09:01:02;28.20;;;23.52;;
54125;SDS011;40360;52.992;6.796;2022-10-31T09:03:30;31.58;;;25.42;;
54125;SDS011;40360;52.992;6.796;2022-10-31T09:06:00;35.47;;;26.98;;
54125;SDS011;40360;52.992;6.796;2022-10-31T09:08:31;28.13;;;23.17;;
54125;SDS011;40360;52.992;6.796;2022-10-31T09:10:58;33.10;;;24.02;;
54125;SDS011;40360;52.992;6.796;2022-10-31T09:13:23;30.83;;;24.75;;
54125;SDS011;40360;52.992;6.796;2022-10-31T09:15:50;31.00;;;22.98;;
54125;SDS011;40360;52.992;6.796;2022-10-31T09:18:17;31.05;;;23.67;;
54125;SDS011;40360;52.992;6.796;2022-10-31T09:20:45;27.85;;;22.40;;
54125;SDS011;40360;52.992;6.796;2022-10-31T09:23:12;30.17;;;23.08;;
54125;SDS011;40360;52.992;6.796;2022-10-31T09:25:40;32.50;;;23.60;;
54125;SDS011;40360;52.992;6.796;2022-10-31T09:28:06;28.30;;;22.13;;
54125;SDS011;40360;52.992;6.796;2022-10-31T09:30:35;30.35;;;23.02;;
54125;SDS011;40360;52.992;6.796;2022-10-31T09:33:05;29.27;;;22.38;;
54125;SDS011;40360;52.992;6.796;2022-10-31T09:35:34;31.67;;;22.65;;
54125;SDS011;40360;52.992;6.796;2022-10-31T09:38:00;30.45;;;22.65;;
54125;SDS011;40360;52.992;6.796;2022-10-31T09:40:40;31.20;;;22.92;;
54125;SDS011;40360;52.992;6.796;2022-10-31T09:43:29;29.23;;;21.58;;
54125;SDS011;40360;52.992;6.796;2022-10-31T09:51:45;24.55;;;20.77;;
54125;SDS011;40360;52.992;6.796;2022-10-31T09:54:21;26.95;;;19.65;;
54125;SDS011;40360;52.992;6.796;2022-10-31T09:57:12;23.17;;;18.77;;
54125;SDS011;40360;52.992;6.796;2022-10-31T09:59:40;24.85;;;18.95;;
54125;SDS011;40360;52.992;6.796;2022-10-31T10:05:17;25.25;;;19.02;;
54125;SDS011;40360;52.992;6.796;2022-10-31T10:07:55;27.45;;;20.00;;
54125;SDS011;40360;52.992;6.796;2022-10-31T10:10:47;28.65;;;18.40;;
54125;SDS011;40360;52.992;6.796;2022-10-31T10:24:22;24.50;;;19.42;;
54125;SDS011;40360;52.992;6.796;2022-10-31T10:32:23;24.98;;;18.88;;
54125;SDS011;40360;52.992;6.796;2022-10-31T10:34:51;26.00;;;19.30;;
54125;SDS011;40360;52.992;6.796;2022-10-31T10:37:30;24.42;;;19.60;;
54125;SDS011;40360;52.992;6.796;2022-10-31T10:42:37;25.20;;;20.60;;
54125;SDS011;40360;52.992;6.796;2022-10-31T10:45:21;30.63;;;22.58;;
54125;SDS011;40360;52.992;6.796;2022-10-31T10:48:08;24.63;;;20.08;;
54125;SDS011;40360;52.992;6.796;2022-10-31T10:50:51;27.90;;;21.07;;
54125;SDS011;40360;52.992;6.796;2022-10-31T10:53:39;26.10;;;21.38;;
54125;SDS011;40360;52.992;6.796;2022-10-31T10:56:30;24.40;;;19.52;;
54125;SDS011;40360;52.992;6.796;2022-10-31T10:59:02;20.90;;;16.25;;
54125;SDS011;40360;52.992;6.796;2022-10-31T11:01:28;22.00;;;17.08;;
54125;SDS011;40360;52.992;6.796;2022-10-31T11:03:55;24.38;;;17.73;;
54125;SDS011;40360;52.992;6.796;2022-10-31T11:06:23;24.65;;;18.08;;
54125;SDS011;40360;52.992;6.796;2022-10-31T11:08:53;24.45;;;17.80;;
54125;SDS011;40360;52.992;6.796;2022-10-31T11:11:31;24.83;;;17.42;;
54125;SDS011;40360;52.992;6.796;2022-10-31T11:14:05;23.85;;;18.25;;
54125;SDS011;40360;52.992;6.796;2022-10-31T11:31:12;25.23;;;19.17;;
54125;SDS011;40360;52.992;6.796;2022-10-31T11:33:47;21.30;;;16.65;;
54125;SDS011;40360;52.992;6.796;2022-10-31T11:36:24;21.92;;;17.27;;
54125;SDS011;40360;52.992;6.796;2022-10-31T11:38:52;22.40;;;17.35;;
54125;SDS011;40360;52.992;6.796;2022-10-31T11:44:15;22.77;;;15.70;;
54125;SDS011;40360;52.992;6.796;2022-10-31T11:46:48;22.38;;;15.77;;
54125;SDS011;40360;52.992;6.796;2022-10-31T11:49:17;23.40;;;17.35;;
54125;SDS011;40360;52.992;6.796;2022-10-31T11:51:49;23.50;;;16.92;;
54125;SDS011;40360;52.992;6.796;2022-10-31T11:54:28;27.00;;;18.85;;
54125;SDS011;40360;52.992;6.796;2022-10-31T11:56:57;28.05;;;19.40;;
54125;SDS011;40360;52.992;6.796;2022-10-31T11:59:27;26.02;;;17.98;;
54125;SDS011;40360;52.992;6.796;2022-10-31T12:01:55;25.65;;;17.98;;
54125;SDS011;40360;52.992;6.796;2022-10-31T12:04:29;20.30;;;16.00;;
54125;SDS011;40360;52.992;6.796;2022-10-31T12:07:06;22.95;;;15.10;;
54125;SDS011;40360;52.992;6.796;2022-10-31T12:09:36;20.67;;;15.18;;
54125;SDS011;40360;52.992;6.796;2022-10-31T12:29:10;20.33;;;14.32;;
54125;SDS011;40360;52.992;6.796;2022-10-31T12:38:18;22.85;;;15.45;;
54125;SDS011;40360;52.992;6.796;2022-10-31T12:43:31;20.80;;;13.48;;
54125;SDS011;40360;52.992;6.796;2022-10-31T12:45:58;20.85;;;13.80;;
54125;SDS011;40360;52.992;6.796;2022-10-31T12:59:26;18.02;;;13.27;;
54125;SDS011;40360;52.992;6.796;2022-10-31T13:02:27;18.92;;;12.43;;
54125;SDS011;40360;52.992;6.796;2022-10-31T13:13:27;19.23;;;11.63;;
54125;SDS011;40360;52.992;6.796;2022-10-31T13:16:15;17.42;;;13.05;;
54125;SDS011;40360;52.992;6.796;2022-10-31T13:18:44;22.65;;;14.05;;
54125;SDS011;40360;52.992;6.796;2022-10-31T13:21:19;18.83;;;12.82;;
54125;SDS011;40360;52.992;6.796;2022-10-31T13:23:49;21.48;;;13.75;;
54125;SDS011;40360;52.992;6.796;2022-10-31T13:29:03;19.45;;;11.88;;
54125;SDS011;40360;52.992;6.796;2022-10-31T13:31:31;20.27;;;12.10;;
54125;SDS011;40360;52.992;6.796;2022-10-31T13:33:58;22.00;;;12.38;;
54125;SDS011;40360;52.992;6.796;2022-10-31T13:38:59;20.40;;;11.77;;
54125;SDS011;40360;52.992;6.796;2022-10-31T13:44:18;19.35;;;12.30;;
54125;SDS011;40360;52.992;6.796;2022-10-31T13:46:46;17.58;;;11.20;;
54125;SDS011;40360;52.992;6.796;2022-10-31T13:51:47;16.23;;;11.43;;
54125;SDS011;40360;52.992;6.796;2022-10-31T13:54:31;21.83;;;12.15;;
54125;SDS011;40360;52.992;6.796;2022-10-31T13:56:58;14.48;;;10.60;;
54125;SDS011;40360;52.992;6.796;2022-10-31T13:59:27;14.45;;;11.18;;
54125;SDS011;40360;52.992;6.796;2022-10-31T14:01:56;22.65;;;12.77;;
54125;SDS011;40360;52.992;6.796;2022-10-31T14:04:25;16.83;;;11.60;;
54125;SDS011;40360;52.992;6.796;2022-10-31T14:09:19;15.05;;;9.77;;
54125;SDS011;40360;52.992;6.796;2022-10-31T14:11:46;20.50;;;10.98;;
54125;SDS011;40360;52.992;6.796;2022-10-31T14:14:13;15.43;;;10.65;;
54125;SDS011;40360;52.992;6.796;2022-10-31T14:16:39;18.27;;;10.75;;
54125;SDS011;40360;52.992;6.796;2022-10-31T14:19:08;13.52;;;9.15;;
54125;SDS011;40360;52.992;6.796;2022-10-31T14:21:42;13.20;;;7.75;;
54125;SDS011;40360;52.992;6.796;2022-10-31T14:27:42;13.15;;;8.00;;
54125;SDS011;40360;52.992;6.796;2022-10-31T14:29:36;16.67;;;7.80;;
54125;SDS011;40360;52.992;6.796;2022-10-31T14:34:40;11.77;;;6.75;;
54125;SDS011;40360;52.992;6.796;2022-10-31T14:39:36;10.43;;;6.25;;
54125;SDS011;40360;52.992;6.796;2022-10-31T14:42:17;15.52;;;7.75;;
54125;SDS011;40360;52.992;6.796;2022-10-31T14:49:56;12.25;;;6.70;;
54125;SDS011;40360;52.992;6.796;2022-10-31T14:52:24;10.07;;;5.75;;
54125;SDS011;40360;52.992;6.796;2022-10-31T14:54:51;10.65;;;5.40;;
54125;SDS011;40360;52.992;6.796;2022-10-31T14:57:20;8.20;;;5.20;;
54125;SDS011;40360;52.992;6.796;2022-10-31T14:59:51;10.80;;;4.70;;
54125;SDS011;40360;52.992;6.796;2022-10-31T15:04:44;10.10;;;4.63;;
54125;SDS011;40360;52.992;6.796;2022-10-31T15:07:13;11.00;;;5.32;;
54125;SDS011;40360;52.992;6.796;2022-10-31T15:09:40;11.25;;;4.95;;
54125;SDS011;40360;52.992;6.796;2022-10-31T15:12:21;10.85;;;4.93;;
54125;SDS011;40360;52.992;6.796;2022-10-31T15:14:47;6.72;;;4.18;;
54125;SDS011;40360;52.992;6.796;2022-10-31T15:17:13;8.50;;;4.88;;
54125;SDS011;40360;52.992;6.796;2022-10-31T15:19:39;8.57;;;5.25;;
54125;SDS011;40360;52.992;6.796;2022-10-31T15:22:05;10.32;;;5.30;;
54125;SDS011;40360;52.992;6.796;2022-10-31T15:24:34;8.13;;;4.65;;
54125;SDS011;40360;52.992;6.796;2022-10-31T15:27:01;9.55;;;5.05;;
54125;SDS011;40360;52.992;6.796;2022-10-31T15:29:27;9.35;;;5.18;;
54125;SDS011;40360;52.992;6.796;2022-10-31T15:34:39;8.98;;;4.93;;
54125;SDS011;40360;52.992;6.796;2022-10-31T15:37:12;11.68;;;5.88;;
54125;SDS011;40360;52.992;6.796;2022-10-31T15:39:41;8.90;;;6.03;;
54125;SDS011;40360;52.992;6.796;2022-10-31T15:42:16;9.93;;;6.32;;
54125;SDS011;40360;52.992;6.796;2022-10-31T15:44:43;10.00;;;6.65;;
54125;SDS011;40360;52.992;6.796;2022-10-31T15:47:18;10.90;;;6.65;;
54125;SDS011;40360;52.992;6.796;2022-10-31T15:49:48;12.13;;;7.20;;
54125;SDS011;40360;52.992;6.796;2022-10-31T15:54:51;11.57;;;9.15;;
54125;SDS011;40360;52.992;6.796;2022-10-31T15:57:19;14.75;;;8.75;;
54125;SDS011;40360;52.992;6.796;2022-10-31T15:59:46;14.18;;;8.48;;
54125;SDS011;40360;52.992;6.796;2022-10-31T16:02:13;15.38;;;9.98;;
54125;SDS011;40360;52.992;6.796;2022-10-31T16:04:49;14.00;;;9.68;;
54125;SDS011;40360;52.992;6.796;2022-10-31T16:07:26;15.95;;;10.65;;
54125;SDS011;40360;52.992;6.796;2022-10-31T16:09:57;14.30;;;10.98;;
54125;SDS011;40360;52.992;6.796;2022-10-31T16:12:37;16.75;;;10.40;;
54125;SDS011;40360;52.992;6.796;2022-10-31T16:15:15;16.00;;;11.55;;
54125;SDS011;40360;52.992;6.796;2022-10-31T16:17:43;13.82;;;11.02;;
54125;SDS011;40360;52.992;6.796;2022-10-31T16:20:26;18.58;;;12.10;;
54125;SDS011;40360;52.992;6.796;2022-10-31T16:22:53;19.27;;;12.75;;
54125;SDS011;40360;52.992;6.796;2022-10-31T16:25:27;15.93;;;12.57;;
54125;SDS011;40360;52.992;6.796;2022-10-31T16:27:56;19.33;;;13.20;;
54125;SDS011;40360;52.992;6.796;2022-10-31T16:33:00;20.05;;;14.75;;
54125;SDS011;40360;52.992;6.796;2022-10-31T16:35:37;20.02;;;14.75;;
54125;SDS011;40360;52.992;6.796;2022-10-31T16:38:03;19.00;;;14.25;;
54125;SDS011;40360;52.992;6.796;2022-10-31T16:40:30;21.23;;;15.20;;
54125;SDS011;40360;52.992;6.796;2022-10-31T16:42:57;22.85;;;15.98;;
54125;SDS011;40360;52.992;6.796;2022-10-31T16:45:24;23.23;;;16.85;;
54125;SDS011;40360;52.992;6.796;2022-10-31T16:47:51;22.58;;;15.60;;
54125;SDS011;40360;52.992;6.796;2022-10-31T16:50:18;26.17;;;16.95;;
54125;SDS011;40360;52.992;6.796;2022-10-31T16:52:45;25.35;;;17.10;;
54125;SDS011;40360;52.992;6.796;2022-10-31T16:55:15;21.70;;;16.45;;
54125;SDS011;40360;52.992;6.796;2022-10-31T16:57:48;24.92;;;18.65;;
54125;SDS011;40360;52.992;6.796;2022-10-31T17:00:17;26.88;;;19.17;;
54125;SDS011;40360;52.992;6.796;2022-10-31T17:02:44;29.15;;;19.30;;
54125;SDS011;40360;52.992;6.796;2022-10-31T17:05:11;26.95;;;19.67;;
54125;SDS011;40360;52.992;6.796;2022-10-31T17:07:38;28.73;;;20.17;;
54125;SDS011;40360;52.992;6.796;2022-10-31T17:10:04;28.40;;;21.35;;
54125;SDS011;40360;52.992;6.796;2022-10-31T17:12:30;26.73;;;20.58;;
54125;SDS011;40360;52.992;6.796;2022-10-31T17:14:56;25.65;;;19.58;;
54125;SDS011;40360;52.992;6.796;2022-10-31T17:17:22;29.45;;;22.75;;
54125;SDS011;40360;52.992;6.796;2022-10-31T17:19:48;30.42;;;22.38;;
54125;SDS011;40360;52.992;6.796;2022-10-31T17:22:14;33.15;;;22.88;;
54125;SDS011;40360;52.992;6.796;2022-10-31T17:24:40;29.63;;;23.02;;